Time;durP1;ratioP1;P1;durP2;ratioP2;P2;SDS_P1;SDS_P2;PMS_P1;PMS_P2;Temp;Humidity;BMP_temperature;BMP_pressure;BME280_temperature;BME280_humidity;BME280_pressure;Samples;Min_cycle;Max_cycle;Signal;HPM_P1;HPM_P2
2021/01/05 00:01:13;;;;;;;3.42;2.67;;;6.10;99.90;;;;;;6155443;23;20005;-80
2021/01/05 00:03:38;;;;;;;3.38;2.58;;;6.10;99.90;;;;;;6181493;23;20020;-81
2021/01/05 00:06:05;;;;;;;3.35;2.75;;;6.00;99.90;;;;;;6155604;23;20478;-80
2021/01/05 00:08:31;;;;;;;2.95;2.75;;;5.90;99.90;;;;;;6182015;23;20001;-80
2021/01/05 00:10:57;;;;;;;3.65;3.38;;;6.00;99.90;;;;;;6155347;23;20440;-80
2021/01/05 00:13:22;;;;;;;3.15;2.83;;;6.00;99.90;;;;;;6155712;23;20430;-80
2021/01/05 00:15:48;;;;;;;4.88;2.80;;;6.00;99.90;;;;;;6156777;23;20004;-79
2021/01/05 00:18:14;;;;;;;3.20;2.90;;;5.90;99.90;;;;;;6184895;23;20056;-79
2021/01/05 00:20:40;;;;;;;4.10;2.90;;;6.00;99.90;;;;;;6157886;23;20013;-80
2021/01/05 00:23:06;;;;;;;5.35;2.88;;;6.00;99.90;;;;;;6158377;23;20005;-80
2021/01/05 00:25:32;;;;;;;5.57;2.80;;;5.90;99.90;;;;;;6158263;23;20012;-82
2021/01/05 00:27:57;;;;;;;3.92;2.33;;;5.90;99.90;;;;;;6184972;23;20008;-83
2021/01/05 00:30:25;;;;;;;4.72;2.78;;;5.90;99.90;;;;;;6158270;23;20064;-82
2021/01/05 00:32:52;;;;;;;5.13;3.85;;;5.90;99.90;;;;;;6158452;23;20005;-82
2021/01/05 00:35:29;;;;;;;3.83;3.53;;;5.90;99.90;;;;;;6185073;23;20012;-83
2021/01/05 00:37:55;;;;;;;6.82;2.88;;;5.80;99.90;;;;;;6158387;23;20001;-82
2021/01/05 00:40:23;;;;;;;5.18;3.58;;;5.80;99.90;;;;;;6184833;23;20005;-82
2021/01/05 00:42:49;;;;;;;4.65;3.92;;;5.80;99.90;;;;;;6158409;23;20114;-82
2021/01/05 00:45:28;;;;;;;5.88;3.03;;;5.70;99.90;;;;;;6158453;23;20009;-81
2021/01/05 00:47:54;;;;;;;6.60;4.93;;;5.80;99.90;;;;;;6158575;23;20096;-82
2021/01/05 00:50:19;;;;;;;5.32;4.07;;;5.80;99.90;;;;;;6158453;23;20005;-82
2021/01/05 00:52:45;;;;;;;3.95;3.38;;;5.80;99.90;;;;;;6158606;23;20426;-82
2021/01/05 00:55:12;;;;;;;3.40;2.83;;;5.80;99.90;;;;;;6158368;23;20056;-81
2021/01/05 00:57:38;;;;;;;3.30;2.88;;;5.80;99.90;;;;;;6158416;23;20059;-82
2021/01/05 01:00:08;;;;;;;2.53;2.33;;;5.80;99.90;;;;;;6158438;23;20032;-82
2021/01/05 01:02:33;;;;;;;2.60;2.35;;;5.80;99.90;;;;;;6158619;23;20009;-81
2021/01/05 01:04:59;;;;;;;3.58;2.58;;;5.70;99.90;;;;;;6159723;23;20019;-81
2021/01/05 01:07:25;;;;;;;3.17;2.50;;;5.70;99.90;;;;;;6160314;23;20016;-82
2021/01/05 01:09:50;;;;;;;2.50;2.30;;;5.70;99.90;;;;;;6160171;23;20105;-81
2021/01/05 01:12:19;;;;;;;3.83;2.50;;;5.70;99.90;;;;;;6186656;23;20001;-81
2021/01/05 01:14:46;;;;;;;2.58;2.38;;;5.70;99.90;;;;;;6160184;23;20012;-82
2021/01/05 01:17:13;;;;;;;5.28;2.63;;;5.70;99.90;;;;;;6186529;23;20001;-82
2021/01/05 01:19:38;;;;;;;1.83;1.73;;;5.70;99.90;;;;;;6159978;23;20009;-81
2021/01/05 01:22:04;;;;;;;2.53;2.03;;;5.70;99.90;;;;;;6186567;23;20084;-82
2021/01/05 01:24:30;;;;;;;1.98;1.88;;;5.60;99.90;;;;;;6160100;23;20029;-81
2021/01/05 01:26:56;;;;;;;2.85;1.80;;;5.60;99.90;;;;;;6159908;23;20445;-82
2021/01/05 01:29:23;;;;;;;1.75;1.65;;;5.60;99.90;;;;;;6160037;23;20008;-82
2021/01/05 01:31:50;;;;;;;2.25;2.05;;;5.60;99.90;;;;;;6159749;23;20005;-81
2021/01/05 01:34:17;;;;;;;2.28;2.10;;;5.60;99.90;;;;;;6159963;23;20340;-81
2021/01/05 01:36:56;;;;;;;2.15;1.98;;;5.60;99.90;;;;;;6186303;23;20005;-82
2021/01/05 01:39:22;;;;;;;2.50;2.10;;;5.60;99.90;;;;;;6159809;23;20052;-82
2021/01/05 01:41:48;;;;;;;2.38;2.17;;;5.60;99.90;;;;;;6159845;23;20060;-82
2021/01/05 01:44:19;;;;;;;2.20;2.08;;;5.60;99.90;;;;;;6186058;23;20627;-82
2021/01/05 01:46:45;;;;;;;2.38;2.05;;;5.70;99.90;;;;;;6159914;23;20040;-82
2021/01/05 01:49:11;;;;;;;1.90;1.80;;;5.70;99.90;;;;;;6159854;23;20001;-82
2021/01/05 01:51:37;;;;;;;2.30;2.10;;;5.60;99.90;;;;;;6185971;23;20004;-83
2021/01/05 01:54:22;;;;;;;2.40;2.20;;;5.50;99.90;;;;;;6159481;23;20100;-82
2021/01/05 01:57:07;;;;;;;2.80;1.73;;;5.60;99.90;;;;;;6159574;23;20357;-81
2021/01/05 01:59:39;;;;;;;2.40;2.20;;;5.50;99.90;;;;;;6159898;23;20001;-82
2021/01/05 02:02:09;;;;;;;2.35;2.08;;;5.50;99.90;;;;;;6159671;23;20079;-82
2021/01/05 02:04:56;;;;;;;2.97;2.20;;;5.50;99.90;;;;;;6159818;23;20517;-82
2021/01/05 02:07:57;;;;;;;3.85;2.30;;;5.50;99.90;;;;;;6159637;23;20005;-82
2021/01/05 02:11:05;;;;;;;4.13;2.38;;;5.50;99.90;;;;;;6159584;23;19997;-82
2021/01/05 02:13:46;;;;;;;2.00;1.90;;;5.50;99.90;;;;;;6143861;23;20009;-82
2021/01/05 02:16:21;;;;;;;2.20;2.00;;;5.50;99.90;;;;;;6159477;23;19997;-82
2021/01/05 02:18:55;;;;;;;2.63;2.20;;;5.50;99.90;;;;;;6159326;23;20017;-81
2021/01/05 02:21:34;;;;;;;1.85;1.75;;;5.50;99.90;;;;;;6185930;23;20016;-82
2021/01/05 02:24:06;;;;;;;2.10;2.00;;;5.40;99.90;;;;;;6159543;23;20005;-82
2021/01/05 02:26:50;;;;;;;3.28;1.90;;;5.50;99.90;;;;;;6159359;23;20040;-81
2021/01/05 02:29:24;;;;;;;3.17;1.52;;;5.50;99.90;;;;;;6159463;23;20088;-82
2021/01/05 02:31:53;;;;;;;2.72;1.67;;;5.50;99.90;;;;;;6159489;23;20084;-81
2021/01/05 02:34:41;;;;;;;1.90;1.70;;;5.60;99.90;;;;;;6159314;23;20005;-81
2021/01/05 02:37:28;;;;;;;1.80;1.70;;;5.60;99.90;;;;;;6159500;23;20013;-82
2021/01/05 02:39:54;;;;;;;1.80;1.70;;;5.60;99.90;;;;;;6159404;23;20012;-82
2021/01/05 02:42:43;;;;;;;1.70;1.60;;;5.60;99.90;;;;;;6159619;23;20005;-82
2021/01/05 02:45:16;;;;;;;1.85;1.75;;;5.60;99.90;;;;;;6159239;23;20009;-81
2021/01/05 02:48:47;;;;;;;3.92;2.35;;;5.60;99.90;;;;;;6185699;23;20028;-82
2021/01/05 02:51:59;;;;;;;1.58;1.48;;;5.60;99.90;;;;;;5977363;23;20039;-82
2021/01/05 02:54:47;;;;;;;2.33;2.13;;;5.50;99.90;;;;;;6041706;23;20105;-81
2021/01/05 02:57:33;;;;;;;1.77;1.42;;;5.60;99.90;;;;;;6155887;23;20076;-82
2021/01/05 03:00:22;;;;;;;1.50;1.40;;;5.60;99.90;;;;;;6154220;23;20010;-82
2021/01/05 03:03:02;;;;;;;1.55;1.45;;;5.60;99.90;;;;;;6113076;23;20005;-82
2021/01/05 03:05:28;;;;;;;1.55;1.40;;;5.60;99.90;;;;;;6154214;23;20006;-83
2021/01/05 03:07:54;;;;;;;2.20;1.60;;;5.60;99.90;;;;;;6154256;23;20064;-82
2021/01/05 03:10:38;;;;;;;1.50;1.40;;;5.60;99.90;;;;;;6154196;23;20032;-82
2021/01/05 03:13:27;;;;;;;1.40;1.30;;;5.60;99.90;;;;;;6154158;23;20005;-82
2021/01/05 03:15:59;;;;;;;1.83;1.73;;;5.70;99.90;;;;;;6154152;23;20345;-82
2021/01/05 03:18:24;;;;;;;3.45;1.67;;;5.70;99.90;;;;;;6154210;23;20013;-82
2021/01/05 03:20:57;;;;;;;2.55;1.50;;;5.70;99.90;;;;;;6153840;23;20057;-82
2021/01/05 03:23:25;;;;;;;1.73;1.63;;;5.70;99.90;;;;;;6153981;23;20494;-82
2021/01/05 03:25:52;;;;;;;2.88;1.67;;;5.70;99.90;;;;;;6153931;23;20484;-82
2021/01/05 03:28:24;;;;;;;2.42;1.63;;;5.80;99.90;;;;;;6155351;23;20004;-82
2021/01/05 03:31:12;;;;;;;4.82;1.55;;;5.80;99.90;;;;;;6153978;23;20005;-83
2021/01/05 03:33:37;;;;;;;1.70;1.60;;;5.80;99.90;;;;;;6153900;23;20052;-82
2021/01/05 03:36:04;;;;;;;2.10;1.92;;;5.80;99.90;;;;;;6154053;23;20014;-82
2021/01/05 03:38:30;;;;;;;2.95;1.65;;;5.80;99.90;;;;;;6153841;23;20092;-82
2021/01/05 03:40:56;;;;;;;2.20;1.60;;;5.80;99.90;;;;;;6155206;23;20033;-82
2021/01/05 03:43:21;;;;;;;1.83;1.73;;;5.80;99.90;;;;;;6155483;23;20005;-82
2021/01/05 03:45:47;;;;;;;3.25;1.35;;;5.80;99.90;;;;;;6153459;23;20012;-82
2021/01/05 03:48:13;;;;;;;4.22;1.75;;;5.70;99.90;;;;;;6153831;23;20013;-82
2021/01/05 03:50:39;;;;;;;2.83;1.60;;;5.70;99.90;;;;;;6153675;23;20088;-82
2021/01/05 03:53:05;;;;;;;3.00;1.50;;;5.70;99.90;;;;;;6155312;23;20084;-82
2021/01/05 03:55:30;;;;;;;1.92;1.67;;;5.70;99.90;;;;;;6178877;23;20017;-82
2021/01/05 03:57:56;;;;;;;3.00;1.60;;;5.70;99.90;;;;;;6184823;23;20087;-82
2021/01/05 04:00:26;;;;;;;1.65;1.55;;;5.70;99.90;;;;;;6184899;23;20005;-82
2021/01/05 04:02:57;;;;;;;3.00;1.48;;;5.70;99.90;;;;;;6158648;23;20009;-82
2021/01/05 04:05:26;;;;;;;3.80;1.67;;;5.70;99.90;;;;;;6158565;23;20044;-82
2021/01/05 04:07:51;;;;;;;1.70;1.50;;;5.70;99.90;;;;;;6185078;23;20076;-82
2021/01/05 04:10:17;;;;;;;2.33;1.85;;;5.70;99.90;;;;;;6158311;23;20433;-82
2021/01/05 04:12:43;;;;;;;1.48;1.38;;;5.70;99.90;;;;;;6158547;23;20492;-82
2021/01/05 04:15:16;;;;;;;2.72;1.50;;;5.70;99.90;;;;;;6158710;23;20004;-82
2021/01/05 04:17:43;;;;;;;4.40;2.20;;;5.70;99.90;;;;;;6184909;23;20007;-82
2021/01/05 04:20:09;;;;;;;1.98;1.88;;;5.70;99.90;;;;;;6158589;23;20041;-82
2021/01/05 04:22:35;;;;;;;4.32;3.80;;;5.70;99.90;;;;;;6158637;23;20005;-82
2021/01/05 04:25:00;;;;;;;8.10;4.03;;;5.70;99.90;;;;;;6158455;23;20020;-82
2021/01/05 04:27:26;;;;;;;6.93;4.70;;;5.70;99.90;;;;;;6158583;23;20035;-82
2021/01/05 04:29:53;;;;;;;8.23;5.15;;;5.60;99.90;;;;;;6158283;23;20001;-82
2021/01/05 04:32:19;;;;;;;3.30;2.92;;;5.60;99.90;;;;;;6158573;23;20005;-82
2021/01/05 04:34:44;;;;;;;3.55;3.25;;;5.60;99.90;;;;;;6158360;23;20013;-82
2021/01/05 04:37:10;;;;;;;4.13;2.70;;;5.60;99.90;;;;;;6184757;23;20005;-82
2021/01/05 04:39:36;;;;;;;2.92;2.40;;;5.60;99.90;;;;;;6160497;23;20012;-82
2021/01/05 04:42:05;;;;;;;4.85;3.58;;;5.50;99.90;;;;;;6160563;23;20005;-82
2021/01/05 04:44:40;;;;;;;2.88;2.58;;;5.50;99.90;;;;;;6160240;23;20437;-82
2021/01/05 04:47:44;;;;;;;2.85;2.28;;;5.50;99.90;;;;;;6160570;23;20068;-82
2021/01/05 04:50:19;;;;;;;2.15;2.00;;;5.50;99.90;;;;;;6118025;23;19997;-81
2021/01/05 04:52:59;;;;;;;1.77;1.67;;;5.50;99.90;;;;;;6160179;23;20001;-81
2021/01/05 04:55:44;;;;;;;1.92;1.60;;;5.60;99.90;;;;;;6160140;23;20025;-82
2021/01/05 04:58:17;;;;;;;1.83;1.40;;;5.60;99.90;;;;;;6160496;23;20008;-82
2021/01/05 05:00:43;;;;;;;1.52;1.42;;;5.60;99.90;;;;;;6186662;23;20005;-82
2021/01/05 05:03:40;;;;;;;2.22;1.70;;;5.60;99.90;;;;;;6159958;23;20464;-82
2021/01/05 05:06:39;;;;;;;1.33;1.33;;;5.60;99.90;;;;;;6186616;23;20340;-82
2021/01/05 05:09:23;;;;;;;3.63;1.70;;;5.60;99.90;;;;;;6160220;23;20027;-82
2021/01/05 05:12:12;;;;;;;1.52;1.42;;;5.60;99.90;;;;;;6160194;23;20001;-82
2021/01/05 05:15:12;;;;;;;2.20;1.60;;;5.60;99.90;;;;;;6159951;23;20363;-82
2021/01/05 05:17:56;;;;;;;1.70;1.60;;;5.60;99.90;;;;;;6160178;23;20009;-82
2021/01/05 05:20:30;;;;;;;2.50;1.60;;;5.70;99.90;;;;;;6160106;23;20013;-82
2021/01/05 05:23:15;;;;;;;1.88;1.60;;;5.60;99.90;;;;;;6160080;23;20385;-82
2021/01/05 05:25:59;;;;;;;1.63;1.52;;;5.60;99.90;;;;;;6160071;23;20397;-81
2021/01/05 05:28:32;;;;;;;2.28;1.30;;;5.60;99.90;;;;;;6160079;23;20009;-82
2021/01/05 05:31:01;;;;;;;1.60;1.50;;;5.60;99.90;;;;;;6159977;23;20005;-82
2021/01/05 05:33:36;;;;;;;1.75;1.55;;;5.60;99.90;;;;;;6159672;23;20001;-82
2021/01/05 05:36:34;;;;;;;2.65;1.67;;;5.60;99.90;;;;;;6159861;23;20059;-82
2021/01/05 05:39:37;;;;;;;2.35;1.50;;;5.60;99.90;;;;;;6160009;23;20008;-82
2021/01/05 05:42:31;;;;;;;2.22;2.00;;;5.60;99.90;;;;;;6159767;23;20087;-82
2021/01/05 05:45:21;;;;;;;7.20;1.60;;;5.60;99.90;;;;;;6159944;23;20005;-82
2021/01/05 05:47:53;;;;;;;1.92;1.58;;;5.60;99.90;;;;;;6159036;23;20426;-82
2021/01/05 05:50:23;;;;;;;2.38;1.63;;;5.60;99.90;;;;;;6159357;23;20001;-82
2021/01/05 05:53:15;;;;;;;1.85;1.35;;;5.60;99.90;;;;;;6159738;23;20008;-82
2021/01/05 05:55:43;;;;;;;1.52;1.42;;;5.50;99.90;;;;;;6139257;23;20025;-82
2021/01/05 05:58:11;;;;;;;2.88;1.90;;;5.50;99.90;;;;;;6186060;23;20005;-82
2021/01/05 06:00:58;;;;;;;1.63;1.52;;;5.50;99.90;;;;;;6159722;23;20005;-82
2021/01/05 06:03:26;;;;;;;1.38;1.27;;;5.50;99.90;;;;;;6159589;23;20429;-82
2021/01/05 06:05:51;;;;;;;1.95;1.40;;;5.50;99.90;;;;;;6159465;23;20052;-82
2021/01/05 06:08:19;;;;;;;4.03;1.45;;;5.50;99.90;;;;;;6159812;23;20004;-82
2021/01/05 06:10:45;;;;;;;1.73;1.63;;;5.60;99.90;;;;;;6159623;23;20348;-82
2021/01/05 06:13:11;;;;;;;1.63;1.20;;;5.60;99.90;;;;;;6159693;23;20032;-83
2021/01/05 06:15:37;;;;;;;4.20;1.50;;;5.60;99.90;;;;;;6159645;23;20005;-81
2021/01/05 06:18:11;;;;;;;1.95;1.27;;;5.60;99.90;;;;;;6186169;23;20005;-82
2021/01/05 06:20:37;;;;;;;3.60;1.90;;;5.60;99.90;;;;;;6185753;23;20104;-82
2021/01/05 06:23:03;;;;;;;1.38;1.38;;;5.60;99.90;;;;;;6186076;23;20012;-82
2021/01/05 06:25:29;;;;;;;1.35;1.33;;;5.60;99.90;;;;;;6159485;23;20015;-82
2021/01/05 06:27:55;;;;;;;1.42;1.33;;;5.60;99.90;;;;;;6159543;23;20076;-82
2021/01/05 06:30:21;;;;;;;2.78;1.00;;;5.50;99.90;;;;;;6159535;23;20001;-82
2021/01/05 06:32:47;;;;;;;1.35;1.25;;;5.60;99.90;;;;;;6159445;23;20033;-82
2021/01/05 06:35:15;;;;;;;3.03;1.25;;;5.50;99.90;;;;;;6159469;23;20013;-82
2021/01/05 06:37:41;;;;;;;1.55;1.45;;;5.50;99.90;;;;;;6158761;23;20016;-82
2021/01/05 06:40:09;;;;;;;1.50;1.40;;;5.50;99.90;;;;;;6159128;23;20036;-82
2021/01/05 06:42:36;;;;;;;1.70;1.60;;;5.60;99.90;;;;;;6185659;23;20024;-82
2021/01/05 06:45:03;;;;;;;3.80;2.08;;;5.50;99.90;;;;;;6159327;23;20016;-82
2021/01/05 06:47:29;;;;;;;2.70;1.88;;;5.50;99.90;;;;;;6159273;23;20008;-82
2021/01/05 06:49:54;;;;;;;2.25;2.05;;;5.50;99.90;;;;;;6159317;23;20001;-82
2021/01/05 06:52:20;;;;;;;1.70;1.60;;;5.50;99.90;;;;;;6159347;23;20453;-82
2021/01/05 06:54:46;;;;;;;4.35;3.95;;;5.50;99.90;;;;;;6159146;23;20017;-82
2021/01/05 06:57:11;;;;;;;11.23;4.60;;;5.50;99.90;;;;;;6159299;23;20008;-82
2021/01/05 06:59:37;;;;;;;5.28;4.07;;;5.60;99.90;;;;;;6159025;23;20013;-82
2021/01/05 07:02:06;;;;;;;3.33;3.03;;;5.60;99.90;;;;;;6185117;23;20039;-82
2021/01/05 07:04:33;;;;;;;8.85;4.43;;;5.60;99.90;;;;;;6185173;23;20429;-82
2021/01/05 07:07:00;;;;;;;4.63;4.13;;;5.60;99.90;;;;;;6159249;23;20504;-82
2021/01/05 07:09:26;;;;;;;4.10;3.70;;;5.60;99.90;;;;;;6159062;23;20070;-82
2021/01/05 07:11:52;;;;;;;6.03;3.50;;;5.60;99.90;;;;;;6159071;23;20012;-82
2021/01/05 07:14:20;;;;;;;4.07;3.70;;;5.70;99.90;;;;;;6158996;23;20004;-82
2021/01/05 07:16:46;;;;;;;3.47;3.20;;;5.70;99.90;;;;;;6185278;23;20020;-82
2021/01/05 07:19:12;;;;;;;4.82;3.30;;;5.60;99.90;;;;;;6158840;23;20001;-82
2021/01/05 07:21:38;;;;;;;3.85;3.38;;;5.60;99.90;;;;;;6155494;23;20718;-82
2021/01/05 07:24:04;;;;;;;3.67;3.30;;;5.60;99.90;;;;;;6182255;23;20004;-82
2021/01/05 07:26:34;;;;;;;4.13;3.55;;;5.70;99.90;;;;;;6154278;23;20015;-82
2021/01/05 07:28:59;;;;;;;9.23;3.78;;;5.70;99.90;;;;;;6154391;23;20084;-83
2021/01/05 07:31:25;;;;;;;11.80;6.47;;;5.70;99.90;;;;;;6181616;23;20491;-83
2021/01/05 07:33:51;;;;;;;19.30;4.57;;;5.60;99.90;;;;;;6154748;23;20005;-83
2021/01/05 07:36:30;;;;;;;7.45;4.55;;;5.60;99.90;;;;;;6155291;23;20700;-83
2021/01/05 07:38:56;;;;;;;8.48;4.60;;;5.60;99.90;;;;;;6155700;23;20009;-83
2021/01/05 07:41:22;;;;;;;6.35;4.85;;;5.70;99.90;;;;;;6180680;23;20001;-80
2021/01/05 07:43:48;;;;;;;8.90;4.70;;;5.70;99.90;;;;;;6155239;23;20399;-80
2021/01/05 07:46:14;;;;;;;10.02;4.43;;;5.70;99.90;;;;;;6155687;23;20009;-79
2021/01/05 07:48:40;;;;;;;6.38;4.30;;;5.70;99.90;;;;;;6155661;23;20008;-80
2021/01/05 07:51:06;;;;;;;6.88;5.13;;;5.70;99.90;;;;;;6153405;23;20005;-80
2021/01/05 07:53:32;;;;;;;12.00;4.80;;;5.70;99.90;;;;;;6149236;23;20012;-80
2021/01/05 07:55:58;;;;;;;4.68;4.20;;;5.70;99.90;;;;;;6175787;23;20369;-80
2021/01/05 07:58:23;;;;;;;11.70;5.90;;;5.70;99.90;;;;;;6176719;23;20429;-80
2021/01/05 08:00:49;;;;;;;6.65;4.38;;;5.70;99.90;;;;;;6150460;23;20603;-80
2021/01/05 08:03:15;;;;;;;8.68;3.50;;;5.80;99.90;;;;;;6147096;23;20009;-80
2021/01/05 08:05:40;;;;;;;4.00;3.53;;;5.90;99.90;;;;;;6147812;23;20089;-80
2021/01/05 08:08:06;;;;;;;4.18;3.40;;;6.00;99.90;;;;;;6150390;23;20001;-80
2021/01/05 08:10:41;;;;;;;3.67;3.20;;;6.00;99.90;;;;;;6175867;23;20001;-80
2021/01/05 08:13:10;;;;;;;7.53;5.20;;;6.00;99.90;;;;;;6150673;23;20001;-81
2021/01/05 08:15:36;;;;;;;9.65;4.43;;;6.00;99.90;;;;;;6151922;23;20005;-80
2021/01/05 08:18:04;;;;;;;9.07;5.50;;;6.00;99.90;;;;;;6152733;23;20005;-81
2021/01/05 08:20:31;;;;;;;8.63;5.47;;;6.10;99.90;;;;;;6177932;23;20706;-81
2021/01/05 08:23:00;;;;;;;5.70;4.90;;;6.10;99.90;;;;;;6152645;23;20011;-80
2021/01/05 08:25:26;;;;;;;5.60;4.05;;;6.10;99.90;;;;;;6178813;23;20012;-81
2021/01/05 08:27:52;;;;;;;6.13;4.43;;;6.20;99.90;;;;;;6152299;23;20009;-79
2021/01/05 08:30:29;;;;;;;9.73;4.78;;;6.20;99.90;;;;;;6178521;23;20001;-81
2021/01/05 08:32:59;;;;;;;6.72;4.78;;;6.20;99.90;;;;;;6152998;23;20032;-80
2021/01/05 08:35:25;;;;;;;10.60;5.85;;;6.20;99.90;;;;;;6152141;23;20020;-80
2021/01/05 08:37:51;;;;;;;10.50;5.72;;;6.30;99.90;;;;;;6152217;23;20016;-80
2021/01/05 08:40:23;;;;;;;6.60;5.65;;;6.30;99.90;;;;;;6152753;23;20060;-80
2021/01/05 08:42:49;;;;;;;12.73;6.60;;;6.30;99.90;;;;;;6153818;23;20551;-80
2021/01/05 08:45:15;;;;;;;10.70;7.35;;;6.40;99.90;;;;;;6151964;23;20005;-80
2021/01/05 08:47:41;;;;;;;10.45;6.95;;;6.40;99.90;;;;;;6149343;23;20059;-79
2021/01/05 08:50:13;;;;;;;23.17;13.68;;;6.40;99.90;;;;;;6174726;23;20001;-79
2021/01/05 08:52:38;;;;;;;24.13;13.88;;;6.30;99.90;;;;;;6152633;23;20028;-80
2021/01/05 08:55:05;;;;;;;28.50;13.07;;;6.40;99.90;;;;;;6151941;23;20532;-80
2021/01/05 08:57:30;;;;;;;9.30;6.35;;;6.40;99.90;;;;;;6152999;23;20015;-80
2021/01/05 08:59:57;;;;;;;6.57;4.07;;;6.40;99.90;;;;;;6151793;23;20333;-78
2021/01/05 09:02:22;;;;;;;6.03;2.80;;;6.40;99.90;;;;;;6179072;23;20005;-80
2021/01/05 09:04:48;;;;;;;3.28;2.65;;;6.40;99.90;;;;;;6151301;23;20571;-79
2021/01/05 09:07:18;;;;;;;2.80;2.60;;;6.50;99.90;;;;;;6150922;23;20008;-77
2021/01/05 09:09:44;;;;;;;4.80;2.85;;;7.00;99.90;;;;;;6179121;23;20000;-78
2021/01/05 09:12:10;;;;;;;3.10;2.80;;;6.90;99.90;;;;;;6181780;23;20032;-77
2021/01/05 09:14:35;;;;;;;3.80;3.00;;;6.80;99.90;;;;;;6149561;23;20005;-81
2021/01/05 09:17:05;;;;;;;4.38;2.65;;;6.80;99.90;;;;;;6177098;23;20020;-81
2021/01/05 09:19:31;;;;;;;3.92;2.70;;;6.80;99.90;;;;;;6175645;23;20009;-81
2021/01/05 09:21:57;;;;;;;3.40;3.00;;;6.80;99.90;;;;;;6177490;23;20495;-81
2021/01/05 09:24:23;;;;;;;4.47;2.45;;;6.80;99.90;;;;;;6177686;23;20011;-81
2021/01/05 09:26:56;;;;;;;4.03;2.28;;;6.70;99.90;;;;;;6152037;23;20001;-81
2021/01/05 09:29:23;;;;;;;4.35;2.50;;;6.70;99.90;;;;;;6177978;23;20614;-83
2021/01/05 09:31:51;;;;;;;2.38;2.00;;;6.70;99.90;;;;;;6152242;23;20005;-81
2021/01/05 09:34:20;;;;;;;2.95;2.10;;;6.70;99.90;;;;;;6170037;23;20969;-82
2021/01/05 09:36:46;;;;;;;2.85;2.65;;;6.70;99.90;;;;;;6177426;23;20433;-82
2021/01/05 09:39:16;;;;;;;13.85;6.13;;;6.70;99.90;;;;;;6151894;23;20009;-81
2021/01/05 09:41:47;;;;;;;6.20;4.38;;;6.70;99.90;;;;;;6151418;23;20056;-82
2021/01/05 09:44:13;;;;;;;3.30;3.00;;;6.70;99.90;;;;;;6177353;23;20021;-81
2021/01/05 09:46:40;;;;;;;8.32;3.50;;;6.70;99.90;;;;;;6152512;23;20318;-82
2021/01/05 09:49:07;;;;;;;8.15;4.80;;;6.70;99.90;;;;;;6148287;23;20100;-82
2021/01/05 09:51:33;;;;;;;5.47;3.22;;;6.80;99.90;;;;;;6151688;23;20442;-82
2021/01/05 09:53:59;;;;;;;5.68;2.90;;;6.80;99.90;;;;;;6148679;23;20020;-82
2021/01/05 09:56:25;;;;;;;8.35;4.70;;;6.80;99.90;;;;;;6151435;23;20005;-82
2021/01/05 09:58:53;;;;;;;5.18;2.10;;;6.80;99.90;;;;;;6151759;23;20005;-82
2021/01/05 10:01:27;;;;;;;4.38;3.35;;;6.80;99.90;;;;;;6151732;23;20341;-82
2021/01/05 10:03:53;;;;;;;4.30;3.10;;;6.90;99.90;;;;;;6152014;23;20009;-77
2021/01/05 10:06:28;;;;;;;7.88;4.60;;;6.80;99.90;;;;;;6179968;23;20439;-78
2021/01/05 10:09:17;;;;;;;3.50;3.20;;;6.90;99.90;;;;;;6180353;23;20001;-81
2021/01/05 10:11:50;;;;;;;3.50;3.15;;;6.90;99.90;;;;;;6157441;23;20016;-81
2021/01/05 10:14:19;;;;;;;2.55;2.25;;;6.90;99.90;;;;;;6180683;23;20008;-81
2021/01/05 10:16:45;;;;;;;2.47;2.10;;;7.00;99.90;;;;;;6183629;23;20485;-81
2021/01/05 10:19:37;;;;;;;2.03;1.90;;;7.00;99.90;;;;;;6183748;23;21131;-82
2021/01/05 10:22:09;;;;;;;3.22;2.08;;;7.00;99.90;;;;;;6156271;23;20008;-81
2021/01/05 10:24:42;;;;;;;2.63;2.42;;;7.00;99.90;;;;;;6177173;23;20008;-81
2021/01/05 10:27:15;;;;;;;8.23;4.90;;;7.10;99.90;;;;;;6152182;23;20066;-81
2021/01/05 10:30:03;;;;;;;10.02;5.70;;;7.00;99.90;;;;;;6151141;23;19993;-81
2021/01/05 10:32:33;;;;;;;3.75;3.45;;;7.10;99.90;;;;;;6153532;23;20005;-81
2021/01/05 10:35:13;;;;;;;5.65;2.78;;;7.10;99.90;;;;;;6155490;23;20064;-82
2021/01/05 10:37:50;;;;;;;7.57;2.10;;;7.10;99.90;;;;;;6156491;23;20384;-81
2021/01/05 10:40:25;;;;;;;1.98;1.88;;;7.10;99.90;;;;;;6157553;23;20013;-81
2021/01/05 10:42:57;;;;;;;2.22;1.80;;;7.20;99.90;;;;;;6156462;23;20726;-81
2021/01/05 10:45:27;;;;;;;2.38;2.20;;;7.20;99.90;;;;;;6183608;23;20336;-81
2021/01/05 10:48:05;;;;;;;3.45;2.33;;;7.20;99.90;;;;;;6156113;23;20040;-81
2021/01/05 10:50:31;;;;;;;3.63;1.90;;;7.20;99.90;;;;;;6157665;23;20088;-77
2021/01/05 10:52:57;;;;;;;4.03;3.20;;;7.20;99.90;;;;;;6176659;23;20029;-78
2021/01/05 10:55:23;;;;;;;3.72;3.35;;;7.20;99.90;;;;;;6179000;23;20067;-77
2021/01/05 10:57:50;;;;;;;11.27;2.40;;;7.20;99.90;;;;;;6150907;23;20005;-78
2021/01/05 11:00:20;;;;;;;3.90;2.78;;;7.30;99.90;;;;;;6152168;23;20040;-78
2021/01/05 11:02:46;;;;;;;11.93;6.05;;;7.30;99.90;;;;;;6149433;23;20005;-78
2021/01/05 11:05:17;;;;;;;11.88;6.47;;;7.30;99.90;;;;;;6153228;23;20013;-77
2021/01/05 11:07:43;;;;;;;5.88;5.35;;;7.30;99.90;;;;;;6176929;23;20422;-78
2021/01/05 11:10:10;;;;;;;10.02;5.68;;;7.40;99.90;;;;;;6152295;23;20012;-77
2021/01/05 11:12:37;;;;;;;5.97;4.97;;;7.40;99.90;;;;;;6151483;23;20421;-77
2021/01/05 11:15:04;;;;;;;5.03;3.30;;;7.40;99.90;;;;;;6152585;23;20051;-78
2021/01/05 11:17:30;;;;;;;3.15;2.90;;;7.40;99.90;;;;;;6174902;23;20438;-77
2021/01/05 11:19:56;;;;;;;5.13;2.58;;;7.50;99.90;;;;;;6151357;23;20015;-77
2021/01/05 11:22:24;;;;;;;7.60;2.25;;;7.50;99.90;;;;;;6151676;23;20066;-77
2021/01/05 11:24:50;;;;;;;3.33;3.00;;;7.50;99.90;;;;;;6155988;23;20333;-77
2021/01/05 11:27:17;;;;;;;2.42;2.20;;;7.60;99.90;;;;;;6150385;23;20005;-78
2021/01/05 11:29:45;;;;;;;6.25;2.00;;;7.60;99.90;;;;;;6178336;23;20349;-78
2021/01/05 11:32:13;;;;;;;5.25;3.58;;;7.60;99.90;;;;;;6150564;23;20001;-77
2021/01/05 11:34:40;;;;;;;5.15;4.00;;;7.60;99.90;;;;;;6153529;23;20005;-78
2021/01/05 11:37:08;;;;;;;1.50;1.40;;;7.60;99.90;;;;;;6150130;23;20009;-77
2021/01/05 11:39:35;;;;;;;7.97;4.82;;;7.60;99.90;;;;;;6179253;23;20591;-78
2021/01/05 11:42:03;;;;;;;13.73;5.90;;;7.60;99.90;;;;;;6150453;23;20097;-78
2021/01/05 11:44:29;;;;;;;8.48;5.43;;;7.70;99.90;;;;;;6151808;23;20001;-78
2021/01/05 11:46:55;;;;;;;12.52;5.90;;;7.70;99.90;;;;;;6176990;23;20008;-77
2021/01/05 11:49:22;;;;;;;15.02;4.68;;;7.60;99.90;;;;;;6156197;23;20005;-77
2021/01/05 11:51:51;;;;;;;11.32;5.80;;;7.70;99.90;;;;;;6153785;23;20013;-77
2021/01/05 11:54:19;;;;;;;9.63;4.65;;;7.70;99.90;;;;;;6155417;23;20067;-77
2021/01/05 11:56:45;;;;;;;7.50;5.32;;;7.70;99.90;;;;;;6176712;23;20004;-77
2021/01/05 11:59:12;;;;;;;6.95;4.35;;;7.70;99.90;;;;;;6152216;23;20530;-77
2021/01/05 12:01:38;;;;;;;6.13;4.95;;;7.70;99.90;;;;;;6175792;23;20441;-78
2021/01/05 12:04:06;;;;;;;20.00;9.68;;;7.70;99.90;;;;;;6179637;23;20097;-77
2021/01/05 12:06:32;;;;;;;19.48;10.07;;;7.70;99.90;;;;;;6177159;23;20139;-77
2021/01/05 12:08:58;;;;;;;17.75;9.73;;;7.70;99.90;;;;;;6151046;23;20037;-77
2021/01/05 12:11:27;;;;;;;16.42;8.73;;;7.80;99.90;;;;;;6180853;23;20020;-77
2021/01/05 12:13:53;;;;;;;25.73;10.77;;;7.80;99.90;;;;;;6182267;23;20029;-77
2021/01/05 12:16:29;;;;;;;22.17;11.18;;;7.70;99.90;;;;;;6155656;23;20015;-78
2021/01/05 12:18:56;;;;;;;22.25;11.07;;;7.80;99.90;;;;;;6155490;23;20068;-77
2021/01/05 12:21:34;;;;;;;17.33;9.65;;;7.80;99.90;;;;;;6182632;23;20005;-78
2021/01/05 12:24:01;;;;;;;16.73;8.48;;;7.80;99.90;;;;;;6155937;23;20346;-77
2021/01/05 12:26:29;;;;;;;15.40;8.13;;;7.80;99.90;;;;;;6155468;23;20425;-78
2021/01/05 12:28:56;;;;;;;12.38;5.57;;;7.80;99.90;;;;;;6181591;23;20098;-77
2021/01/05 12:31:22;;;;;;;2.90;2.10;;;7.80;99.90;;;;;;6182579;23;20001;-77
2021/01/05 12:33:49;;;;;;;2.35;2.13;;;7.80;99.90;;;;;;6155627;23;19989;-77
2021/01/05 12:36:24;;;;;;;3.13;1.45;;;7.90;99.90;;;;;;6182877;23;20008;-77
2021/01/05 12:38:50;;;;;;;6.22;4.30;;;7.90;99.90;;;;;;6184945;23;20429;-77
2021/01/05 12:41:18;;;;;;;14.38;6.93;;;7.90;99.90;;;;;;6183921;23;20032;-77
2021/01/05 12:43:44;;;;;;;11.07;6.07;;;7.90;99.90;;;;;;6184819;23;20005;-77
2021/01/05 12:46:10;;;;;;;13.60;8.23;;;7.90;99.90;;;;;;6184983;23;20059;-77
2021/01/05 12:48:40;;;;;;;16.60;7.80;;;7.80;99.90;;;;;;6182789;23;20004;-78
2021/01/05 12:51:05;;;;;;;16.15;7.75;;;7.90;99.90;;;;;;6181105;23;20020;-78
2021/01/05 12:53:31;;;;;;;13.98;7.63;;;7.90;99.90;;;;;;6181999;23;20001;-78
2021/01/05 12:55:57;;;;;;;18.15;7.20;;;7.90;99.90;;;;;;6155644;23;20108;-78
2021/01/05 12:58:23;;;;;;;8.40;5.47;;;7.90;99.90;;;;;;6181510;23;20084;-78
2021/01/05 13:00:48;;;;;;;8.85;5.63;;;7.90;99.90;;;;;;6157717;23;20438;-77
2021/01/05 13:03:14;;;;;;;3.78;3.38;;;7.90;99.90;;;;;;6181687;23;20058;-78
2021/01/05 13:05:41;;;;;;;7.22;3.50;;;7.90;99.90;;;;;;6150711;23;20005;-78
2021/01/05 13:08:06;;;;;;;7.95;3.70;;;7.90;99.90;;;;;;6157558;23;20345;-78
2021/01/05 13:10:32;;;;;;;6.80;4.75;;;7.80;99.90;;;;;;6155152;23;20001;-78
2021/01/05 13:12:58;;;;;;;6.85;5.43;;;7.90;99.90;;;;;;6176791;23;20072;-78